createdAt,value
2019-01-27T00:00:52.073Z,36.83
2019-01-27T00:03:29.856Z,30.67
2019-01-27T00:06:08.382Z,39.63
2019-01-27T00:08:43.380Z,46.40
2019-01-27T00:11:17.290Z,23.43
2019-01-27T00:13:59.604Z,21.37
2019-01-27T00:16:35.906Z,32.43
2019-01-27T00:19:12.942Z,24.03
2019-01-27T00:21:48.827Z,32.73
2019-01-27T00:24:30.191Z,39.83
2019-01-27T00:27:06.492Z,28.27
2019-01-27T00:29:40.368Z,36.33
2019-01-27T00:32:14.077Z,39.60
2019-01-27T00:34:49.536Z,43.23
2019-01-27T00:37:23.592Z,35.57
2019-01-27T00:39:57.428Z,54.50
2019-01-27T00:42:32.495Z,44.43
2019-01-27T00:45:07.843Z,27.93
2019-01-27T00:47:41.661Z,22.53
2019-01-27T00:50:17.420Z,27.17
2019-01-27T00:52:51.064Z,27.20
2019-01-27T00:55:31.839Z,20.13
2019-01-27T00:58:05.177Z,21.97
2019-01-27T01:00:41.348Z,18.47
2019-01-27T01:03:17.645Z,19.57
2019-01-27T01:05:51.683Z,33.83
2019-01-27T01:08:27.370Z,29.63
2019-01-27T01:11:01.204Z,21.03
2019-01-27T01:13:37.773Z,18.40
2019-01-27T01:16:11.355Z,15.17
2019-01-27T01:18:45.045Z,19.23
2019-01-27T01:21:19.134Z,17.13
2019-01-27T01:23:55.223Z,19.77
2019-01-27T01:26:29.312Z,18.33
2019-01-27T01:29:03.503Z,22.67
2019-01-27T01:31:43.792Z,19.40
2019-01-27T01:34:17.099Z,25.63
2019-01-27T01:36:51.483Z,69.40
2019-01-27T01:39:24.882Z,38.40
2019-01-27T01:41:59.118Z,18.57
2019-01-27T01:44:34.599Z,23.97
2019-01-27T01:47:11.835Z,32.77
2019-01-27T01:49:47.167Z,17.33
2019-01-27T01:52:21.444Z,14.77
2019-01-27T01:54:55.188Z,12.30
2019-01-27T01:57:29.307Z,17.47
2019-01-27T02:00:02.805Z,14.90
2019-01-27T02:02:37.331Z,18.73
2019-01-27T02:05:11.921Z,21.70
2019-01-27T02:07:46.017Z,15.80
2019-01-27T02:10:23.913Z,20.07
2019-01-27T02:12:57.674Z,25.30
2019-01-27T02:16:05.318Z,22.80
2019-01-27T02:18:40.356Z,33.67
2019-01-27T02:21:16.270Z,27.03
2019-01-27T02:23:50.381Z,18.83
2019-01-27T02:26:24.017Z,25.97
2019-01-27T02:28:57.837Z,22.97
2019-01-27T02:31:31.416Z,34.33
2019-01-27T02:34:05.765Z,24.47
2019-01-27T02:36:40.556Z,21.90
2019-01-27T02:39:14.468Z,20.50
2019-01-27T02:41:48.204Z,20.33
2019-01-27T02:44:22.168Z,23.63
2019-01-27T02:46:57.097Z,26.40
2019-01-27T02:49:30.789Z,17.27
2019-01-27T02:52:04.527Z,30.10
2019-01-27T02:54:38.660Z,15.77
2019-01-27T02:57:11.873Z,13.80
2019-01-27T02:59:45.587Z,16.40
2019-01-27T03:02:21.485Z,26.07
2019-01-27T03:04:58.142Z,13.43
2019-01-27T03:07:39.082Z,11.10
2019-01-27T03:10:15.264Z,23.83
2019-01-27T03:12:51.506Z,20.63
2019-01-27T03:15:27.579Z,18.63
2019-01-27T03:18:01.544Z,16.13
2019-01-27T03:20:54.701Z,23.40
2019-01-27T03:23:28.275Z,22.27
2019-01-27T03:26:10.784Z,15.47
2019-01-27T03:28:44.595Z,19.57
2019-01-27T03:31:18.791Z,23.47
2019-01-27T03:33:56.212Z,19.00
2019-01-27T03:36:30.234Z,19.97
2019-01-27T03:39:05.246Z,16.87
2019-01-27T03:41:39.559Z,12.93
2019-01-27T03:44:15.543Z,19.50
2019-01-27T03:46:49.622Z,38.93
2019-01-27T03:49:24.690Z,58.67
2019-01-27T03:51:59.705Z,68.77
2019-01-27T03:54:33.428Z,59.47
2019-01-27T03:57:09.224Z,42.53
2019-01-27T03:59:42.453Z,62.67
2019-01-27T04:02:16.504Z,44.93
2019-01-27T04:04:50.111Z,50.40
2019-01-27T04:07:24.197Z,108.33
2019-01-27T04:09:57.953Z,77.87
2019-01-27T04:12:31.977Z,63.60
2019-01-27T04:15:06.122Z,67.23
2019-01-27T04:17:40.200Z,37.17
2019-01-27T04:20:16.813Z,52.53
2019-01-27T04:22:50.775Z,52.53
2019-01-27T04:25:24.235Z,46.10
2019-01-27T04:27:57.986Z,36.37
2019-01-27T04:30:36.311Z,56.53
2019-01-27T04:33:10.265Z,52.80
2019-01-27T04:35:44.095Z,56.03
2019-01-27T04:38:18.113Z,45.20
2019-01-27T04:40:52.212Z,32.90
2019-01-27T04:43:26.431Z,36.10
2019-01-27T04:46:00.117Z,41.67
2019-01-27T04:48:35.672Z,35.23
2019-01-27T04:51:12.780Z,35.30
2019-01-27T04:53:47.370Z,39.77
2019-01-27T04:56:21.060Z,35.10
2019-01-27T04:58:55.100Z,40.63
2019-01-27T05:01:28.702Z,44.17
2019-01-27T05:04:21.144Z,26.33
2019-01-27T05:06:56.077Z,52.40
2019-01-27T05:09:30.074Z,37.00
2019-01-27T05:12:03.970Z,28.03
2019-01-27T05:14:38.033Z,45.23
2019-01-27T05:17:11.799Z,38.30
2019-01-27T05:19:47.884Z,43.93
2019-01-27T05:22:24.595Z,37.03
2019-01-27T05:24:58.425Z,46.77
2019-01-27T05:27:32.366Z,40.37
2019-01-27T05:30:07.464Z,45.70
2019-01-27T05:32:41.284Z,51.40
2019-01-27T05:35:14.832Z,40.93
2019-01-27T05:37:48.680Z,46.20
2019-01-27T05:40:22.985Z,34.87
2019-01-27T05:42:57.901Z,48.47
2019-01-27T05:45:31.948Z,35.67
2019-01-27T05:48:05.642Z,36.67
2019-01-27T05:50:39.661Z,41.20
2019-01-27T05:53:15.134Z,38.57
2019-01-27T05:55:51.021Z,35.03
2019-01-27T05:58:24.725Z,39.23
2019-01-27T06:01:05.513Z,33.13
2019-01-27T06:03:39.013Z,52.40
2019-01-27T06:06:13.184Z,36.87
2019-01-27T06:08:46.864Z,38.83
2019-01-27T06:11:23.174Z,51.67
2019-01-27T06:13:56.957Z,50.80
2019-01-27T06:16:30.827Z,36.27
2019-01-27T06:19:04.657Z,29.43
2019-01-27T06:21:38.739Z,33.63
2019-01-27T06:24:14.708Z,35.67
2019-01-27T06:26:48.794Z,32.23
2019-01-27T06:29:24.421Z,45.80
2019-01-27T06:31:58.629Z,40.13
2019-01-27T06:34:34.779Z,47.15
2019-01-27T06:37:08.816Z,38.43
2019-01-27T06:39:45.076Z,75.83
2019-01-27T06:42:18.997Z,55.63
2019-01-27T06:44:52.476Z,56.40
2019-01-27T06:47:27.798Z,35.63
2019-01-27T06:50:01.265Z,38.10
2019-01-27T06:52:36.591Z,37.30
2019-01-27T06:55:13.230Z,30.83
2019-01-27T06:57:47.331Z,48.33
2019-01-27T07:00:41.463Z,43.10
2019-01-27T07:03:43.066Z,37.73
2019-01-27T07:06:40.614Z,39.30
2019-01-27T07:09:40.608Z,40.63
2019-01-27T07:12:26.180Z,30.87
2019-01-27T07:15:26.938Z,36.47
2019-01-27T07:18:24.199Z,34.63
2019-01-27T07:21:16.443Z,52.70
2019-01-27T07:24:12.233Z,40.83
2019-01-27T07:27:19.465Z,42.27
2019-01-27T07:30:03.800Z,53.90
2019-01-27T07:32:58.450Z,48.73
2019-01-27T07:36:02.028Z,34.50
2019-01-27T07:39:01.678Z,36.83
2019-01-27T07:41:50.593Z,39.17
2019-01-27T07:44:44.779Z,31.17
2019-01-27T07:47:42.915Z,39.53
2019-01-27T07:50:36.166Z,39.67
2019-01-27T07:53:39.369Z,58.73
2019-01-27T07:56:29.188Z,53.73
2019-01-27T07:59:23.810Z,45.20
2019-01-27T08:02:27.232Z,37.60
2019-01-27T08:05:21.547Z,40.80
2019-01-27T08:08:22.654Z,28.40
2019-01-27T08:11:14.580Z,32.47
2019-01-27T08:14:03.157Z,35.20
2019-01-27T08:17:13.152Z,29.00
2019-01-27T08:20:15.154Z,35.60
2019-01-27T08:23:07.811Z,39.07
2019-01-27T08:26:00.740Z,42.73
2019-01-27T08:28:49.109Z,43.70
2019-01-27T08:31:49.864Z,43.90
2019-01-27T08:34:49.418Z,51.50
2019-01-27T08:37:57.385Z,36.17
2019-01-27T08:41:03.767Z,45.37
2019-01-27T08:44:02.633Z,34.20
2019-01-27T08:46:48.589Z,32.97
2019-01-27T08:49:23.513Z,39.20
2019-01-27T08:51:57.249Z,35.17
2019-01-27T08:54:32.148Z,39.60
2019-01-27T08:57:07.288Z,25.70
2019-01-27T08:59:42.287Z,38.57
2019-01-27T09:02:47.821Z,31.17
2019-01-27T09:05:35.526Z,24.13
2019-01-27T09:08:32.982Z,36.13
2019-01-27T09:11:27.030Z,45.80
2019-01-27T09:14:20.459Z,54.63
2019-01-27T09:17:24.075Z,33.90
2019-01-27T09:20:32.156Z,40.37
2019-01-27T09:23:25.411Z,39.33
2019-01-27T09:26:26.699Z,35.40
2019-01-27T09:29:26.735Z,28.80
2019-01-27T09:32:24.833Z,32.57
2019-01-27T09:35:33.159Z,26.17
2019-01-27T09:38:25.605Z,26.23
2019-01-27T09:41:39.472Z,25.10
2019-01-27T09:44:35.786Z,39.40
2019-01-27T09:47:37.681Z,18.93
2019-01-27T09:50:39.639Z,42.80
2019-01-27T09:53:24.893Z,30.40
2019-01-27T09:56:15.355Z,19.63
2019-01-27T09:59:21.570Z,25.53
2019-01-27T10:02:18.368Z,27.40
2019-01-27T10:05:02.256Z,26.67
2019-01-27T10:08:08.855Z,26.70
2019-01-27T10:10:57.043Z,35.47
2019-01-27T10:13:54.305Z,27.43
2019-01-27T10:16:48.280Z,15.73
2019-01-27T10:19:42.997Z,13.43
2019-01-27T10:22:36.573Z,12.83
2019-01-27T10:25:32.705Z,24.40
2019-01-27T10:28:28.965Z,36.93
2019-01-27T10:31:16.553Z,18.17
2019-01-27T10:34:04.457Z,15.50
2019-01-27T10:37:04.080Z,14.63
2019-01-27T10:40:30.466Z,29.93
2019-01-27T10:43:35.044Z,24.57
2019-01-27T10:46:37.803Z,30.73
2019-01-27T10:49:31.647Z,64.00
2019-01-27T10:52:19.956Z,22.83
2019-01-27T10:55:20.921Z,15.80
2019-01-27T10:58:17.805Z,23.57
2019-01-27T11:01:06.123Z,13.17
2019-01-27T11:03:58.665Z,31.10
2019-01-27T11:06:47.027Z,13.77
2019-01-27T11:09:50.678Z,15.03
2019-01-27T11:12:37.123Z,15.63
2019-01-27T11:15:22.075Z,17.82
2019-01-27T11:18:16.284Z,25.00
2019-01-27T11:21:20.196Z,20.95
2019-01-27T11:24:12.099Z,20.52
2019-01-27T11:27:03.557Z,30.50
2019-01-27T11:29:52.925Z,23.33
2019-01-27T11:32:44.660Z,22.80
2019-01-27T11:35:34.658Z,22.73
2019-01-27T11:38:28.173Z,12.30
2019-01-27T11:41:30.111Z,14.83
2019-01-27T11:44:25.575Z,18.27
2019-01-27T11:47:22.344Z,8.80
2019-01-27T11:50:27.849Z,16.10
2019-01-27T11:53:13.305Z,9.40
2019-01-27T11:55:47.928Z,21.87
2019-01-27T11:58:22.444Z,16.57
2019-01-27T12:01:00.331Z,9.57
2019-01-27T12:03:37.246Z,19.53
2019-01-27T12:06:15.637Z,13.00
2019-01-27T12:08:55.091Z,22.50
2019-01-27T12:11:33.372Z,16.57
2019-01-27T12:14:07.831Z,15.83
2019-01-27T12:16:43.817Z,16.40
2019-01-27T12:19:24.259Z,14.83
2019-01-27T12:21:59.049Z,21.27
2019-01-27T12:24:33.145Z,18.73
2019-01-27T12:27:07.646Z,15.87
2019-01-27T12:29:42.717Z,16.70
2019-01-27T12:32:17.198Z,11.67
2019-01-27T12:34:52.326Z,13.33
2019-01-27T12:37:27.855Z,32.53
2019-01-27T12:40:04.821Z,18.43
2019-01-27T12:42:40.128Z,16.67
2019-01-27T12:45:19.763Z,26.93
2019-01-27T12:47:54.807Z,7.60
2019-01-27T12:50:30.688Z,22.17
2019-01-27T12:53:12.522Z,11.13
2019-01-27T12:55:46.687Z,17.60
2019-01-27T12:58:22.923Z,7.83
2019-01-27T13:01:08.518Z,13.33
2019-01-27T13:03:46.813Z,17.73
2019-01-27T13:06:23.118Z,7.20
2019-01-27T13:08:57.553Z,15.97
2019-01-27T13:11:31.772Z,22.20
2019-01-27T13:14:05.906Z,18.43
2019-01-27T13:16:41.136Z,11.03
2019-01-27T13:19:15.687Z,10.77
2019-01-27T13:21:49.785Z,7.73
2019-01-27T13:24:24.103Z,18.60
2019-01-27T13:26:58.021Z,7.70
2019-01-27T13:29:33.062Z,7.63
2019-01-27T13:32:11.225Z,19.53
2019-01-27T13:34:45.898Z,14.30
2019-01-27T13:37:22.470Z,11.30
2019-01-27T13:39:56.901Z,21.43
2019-01-27T13:42:34.294Z,19.87
2019-01-27T13:45:10.625Z,8.37
2019-01-27T13:47:58.917Z,21.47
2019-01-27T13:50:38.994Z,17.87
2019-01-27T13:53:14.039Z,33.03
2019-01-27T13:55:48.838Z,26.10
2019-01-27T13:58:28.020Z,34.43
2019-01-27T14:01:03.729Z,33.57
2019-01-27T14:03:39.453Z,14.53
2019-01-27T14:06:16.326Z,36.27
2019-01-27T14:08:49.022Z,31.47
2019-01-27T14:11:23.184Z,21.27
2019-01-27T14:14:01.951Z,29.67
2019-01-27T14:16:37.956Z,27.93
2019-01-27T14:19:12.775Z,16.87
2019-01-27T14:21:47.068Z,29.23
2019-01-27T14:24:24.875Z,7.43
2019-01-27T14:26:59.688Z,11.87
2019-01-27T14:29:34.099Z,14.33
2019-01-27T14:32:10.270Z,22.30
2019-01-27T14:34:44.565Z,38.80
2019-01-27T14:37:19.688Z,31.53
2019-01-27T14:39:55.311Z,26.30
2019-01-27T14:42:29.360Z,15.10
2019-01-27T14:45:03.824Z,10.00
2019-01-27T14:47:39.117Z,9.57
2019-01-27T14:50:17.731Z,12.93
2019-01-27T14:52:52.873Z,16.20
2019-01-27T14:55:32.776Z,18.97
2019-01-27T14:58:10.596Z,26.37
2019-01-27T15:00:54.246Z,23.67
2019-01-27T15:03:29.416Z,27.17
2019-01-27T15:06:03.674Z,14.53
2019-01-27T15:08:39.227Z,11.97
2019-01-27T15:11:14.212Z,17.77
2019-01-27T15:13:49.095Z,21.03
2019-01-27T15:16:24.098Z,21.90
2019-01-27T15:18:58.603Z,35.00
2019-01-27T15:21:35.687Z,24.60
2019-01-27T15:24:11.851Z,29.30
2019-01-27T15:26:46.057Z,30.23
2019-01-27T15:29:21.651Z,26.87
2019-01-27T15:31:55.847Z,29.33
2019-01-27T15:34:32.210Z,43.43
2019-01-27T15:37:06.817Z,32.07
2019-01-27T15:39:40.950Z,49.33
2019-01-27T15:42:16.840Z,34.93
2019-01-27T15:44:51.424Z,38.23
2019-01-27T15:47:28.486Z,58.00
2019-01-27T15:50:03.896Z,39.30
2019-01-27T15:52:40.469Z,54.67
2019-01-27T15:55:16.000Z,49.97
2019-01-27T15:57:50.263Z,31.83
2019-01-27T16:00:27.519Z,59.23
2019-01-27T16:03:01.802Z,49.73
2019-01-27T16:05:36.524Z,48.53
2019-01-27T16:08:11.803Z,44.77
2019-01-27T16:10:49.810Z,62.13
2019-01-27T16:13:24.530Z,58.73
2019-01-27T16:16:00.470Z,59.73
2019-01-27T16:18:36.018Z,51.77
2019-01-27T16:21:11.279Z,50.07
2019-01-27T16:23:52.788Z,53.03
2019-01-27T16:26:33.419Z,66.43
2019-01-27T16:29:08.073Z,85.03
2019-01-27T16:31:51.609Z,59.83
2019-01-27T16:34:42.911Z,80.27
2019-01-27T16:37:18.004Z,99.20
2019-01-27T16:39:51.993Z,74.67
2019-01-27T16:42:26.723Z,76.43
2019-01-27T16:45:00.824Z,92.43
2019-01-27T16:47:35.854Z,78.53
2019-01-27T16:50:14.975Z,88.20
2019-01-27T16:52:50.020Z,84.30
2019-01-27T16:55:28.029Z,84.23
2019-01-27T16:58:02.441Z,75.17
2019-01-27T17:00:40.137Z,88.47
2019-01-27T17:03:15.131Z,117.97
2019-01-27T17:05:49.371Z,113.27
2019-01-27T17:08:26.728Z,112.23
2019-01-27T17:11:01.932Z,116.77
2019-01-27T17:13:36.919Z,127.23
2019-01-27T17:16:16.761Z,111.70
2019-01-27T17:18:53.700Z,96.60
2019-01-27T17:21:28.512Z,116.87
2019-01-27T17:24:03.084Z,101.57
2019-01-27T17:26:52.648Z,97.77
2019-01-27T17:29:29.807Z,104.70
2019-01-27T17:32:05.738Z,106.83
2019-01-27T17:34:40.866Z,133.87
2019-01-27T17:37:15.452Z,118.93
2019-01-27T17:39:55.727Z,99.57
2019-01-27T17:42:36.130Z,110.33
2019-01-27T17:45:12.966Z,108.90
2019-01-27T17:47:54.028Z,93.07
2019-01-27T17:50:29.551Z,77.30
2019-01-27T17:53:03.767Z,69.33
2019-01-27T17:55:47.247Z,104.60
2019-01-27T17:58:35.253Z,80.20
2019-01-27T18:01:23.253Z,95.03
2019-01-27T18:04:22.813Z,64.20
2019-01-27T18:07:23.243Z,62.73
2019-01-27T18:10:08.532Z,59.13
2019-01-27T18:13:09.473Z,75.63
2019-01-27T18:15:43.755Z,86.23
2019-01-27T18:18:18.033Z,78.97
2019-01-27T18:20:53.952Z,76.73
2019-01-27T18:23:40.119Z,63.70
2019-01-27T18:26:17.409Z,73.10
2019-01-27T18:28:54.048Z,82.53
2019-01-27T18:31:28.377Z,59.60
2019-01-27T18:34:02.753Z,59.27
2019-01-27T18:36:37.001Z,64.73
2019-01-27T18:39:13.640Z,45.97
2019-01-27T18:41:47.954Z,55.40
2019-01-27T18:44:22.338Z,52.83
2019-01-27T18:46:57.420Z,60.13
2019-01-27T18:49:31.863Z,106.23
2019-01-27T18:52:06.520Z,70.83
2019-01-27T18:55:14.246Z,74.20
2019-01-27T18:58:05.045Z,64.37
2019-01-27T19:00:58.601Z,65.77
2019-01-27T19:03:55.951Z,57.13
2019-01-27T19:06:46.544Z,72.33
2019-01-27T19:09:38.853Z,60.27
2019-01-27T19:12:44.029Z,63.63
2019-01-27T19:16:01.337Z,73.07
2019-01-27T19:18:56.400Z,82.47
2019-01-27T19:21:51.166Z,70.73
2019-01-27T19:24:45.703Z,73.40
2019-01-27T19:27:55.730Z,74.07
2019-01-27T19:30:36.810Z,82.80
2019-01-27T19:33:30.295Z,75.70
2019-01-27T19:36:23.686Z,104.80
2019-01-27T19:39:13.022Z,84.03
2019-01-27T19:42:11.450Z,68.90
2019-01-27T19:45:11.853Z,70.30
2019-01-27T19:48:11.168Z,85.83
2019-01-27T19:51:09.660Z,84.07
2019-01-27T19:54:16.179Z,84.60
2019-01-27T19:57:19.582Z,82.00
2019-01-27T20:00:20.739Z,75.63
2019-01-27T20:03:14.406Z,66.70
2019-01-27T20:06:00.069Z,73.13
2019-01-27T20:08:53.104Z,66.53
2019-01-27T20:11:40.730Z,79.73
2019-01-27T20:14:36.695Z,89.20
2019-01-27T20:17:37.226Z,89.63
2019-01-27T20:20:34.496Z,84.47
2019-01-27T20:23:27.296Z,135.17
2019-01-27T20:26:19.901Z,80.50
2019-01-27T20:29:16.180Z,81.63
2019-01-27T20:32:16.770Z,95.07
2019-01-27T20:35:17.690Z,74.37
2019-01-27T20:38:11.639Z,78.80
2019-01-27T20:41:24.754Z,69.27
2019-01-27T20:44:17.410Z,65.53
2019-01-27T20:47:12.438Z,56.37
2019-01-27T20:50:19.484Z,64.63
2019-01-27T20:53:13.657Z,53.03
2019-01-27T20:56:05.562Z,55.37
2019-01-27T20:59:06.325Z,59.30
2019-01-27T21:02:02.721Z,63.50
2019-01-27T21:04:56.552Z,49.80
2019-01-27T21:07:49.098Z,44.00
2019-01-27T21:10:48.996Z,42.57
2019-01-27T21:13:57.102Z,50.20
2019-01-27T21:16:59.253Z,57.23
2019-01-27T21:19:46.162Z,95.07
2019-01-27T21:22:20.767Z,48.70
2019-01-27T21:24:54.400Z,37.20
2019-01-27T21:27:28.583Z,34.93
2019-01-27T21:30:02.353Z,49.13
2019-01-27T21:32:37.972Z,50.10
2019-01-27T21:35:13.035Z,65.00
2019-01-27T21:37:47.418Z,52.17
2019-01-27T21:40:22.172Z,53.57
2019-01-27T21:42:57.579Z,63.60
2019-01-27T21:45:31.270Z,64.00
2019-01-27T21:48:05.898Z,59.43
2019-01-27T21:50:46.318Z,73.63
2019-01-27T21:53:20.626Z,51.13
2019-01-27T21:55:57.801Z,40.27
2019-01-27T21:58:34.326Z,46.73
2019-01-27T22:01:08.156Z,41.83
2019-01-27T22:03:43.604Z,34.13
2019-01-27T22:06:18.522Z,31.80
2019-01-27T22:08:53.332Z,45.03
2019-01-27T22:11:27.071Z,40.40
2019-01-27T22:14:01.490Z,42.37
2019-01-27T22:16:36.477Z,64.87
2019-01-27T22:19:10.770Z,44.83
2019-01-27T22:21:44.672Z,41.87
2019-01-27T22:24:20.122Z,43.40
2019-01-27T22:26:54.239Z,33.50
2019-01-27T22:29:30.270Z,27.60
2019-01-27T22:32:08.597Z,39.43
2019-01-27T22:34:42.400Z,40.63
2019-01-27T22:37:16.621Z,29.53
2019-01-27T22:39:50.510Z,35.43
2019-01-27T22:42:24.752Z,25.77
2019-01-27T22:45:01.748Z,27.73
2019-01-27T22:47:35.731Z,33.23
2019-01-27T22:50:14.778Z,44.83
2019-01-27T22:52:49.476Z,24.27
2019-01-27T22:55:27.734Z,26.13
2019-01-27T22:58:05.157Z,22.73
2019-01-27T23:01:07.996Z,22.33
2019-01-27T23:03:46.502Z,28.13
2019-01-27T23:06:20.526Z,33.20
2019-01-27T23:08:55.257Z,19.80
2019-01-27T23:11:31.198Z,20.97
2019-01-27T23:14:05.676Z,19.57
2019-01-27T23:16:42.275Z,29.30
2019-01-27T23:19:16.806Z,29.47
2019-01-27T23:21:51.247Z,26.73
2019-01-27T23:24:25.294Z,26.63
2019-01-27T23:27:00.124Z,22.03
2019-01-27T23:29:33.902Z,22.37
2019-01-27T23:32:08.957Z,27.27
2019-01-27T23:34:43.273Z,24.53
2019-01-27T23:37:18.476Z,15.87
2019-01-27T23:39:54.680Z,11.80
2019-01-27T23:42:28.757Z,17.77
2019-01-27T23:45:08.217Z,19.10
2019-01-27T23:47:47.321Z,18.27
2019-01-27T23:50:21.094Z,19.00
2019-01-27T23:52:55.200Z,21.93
2019-01-27T23:55:28.798Z,11.83
2019-01-27T23:58:03.033Z,10.37
